createdAt,value
2022-10-09T00:01:29.619Z,7.30
2022-10-09T00:03:57.622Z,7.20
2022-10-09T00:06:34.371Z,7.20
2022-10-09T00:09:02.284Z,7.20
2022-10-09T00:11:30.456Z,7.20
2022-10-09T00:13:58.685Z,7.20
2022-10-09T00:16:26.185Z,7.20
2022-10-09T00:18:53.419Z,7.10
2022-10-09T00:21:28.649Z,7.10
2022-10-09T00:23:57.191Z,7.10
2022-10-09T00:26:24.470Z,7.10
2022-10-09T00:28:51.636Z,7.10
2022-10-09T00:31:19.301Z,7.10
2022-10-09T00:33:46.447Z,7.10
2022-10-09T00:36:15.849Z,7.00
2022-10-09T00:38:42.899Z,7.00
2022-10-09T00:41:16.020Z,7.00
2022-10-09T00:43:56.439Z,7.00
2022-10-09T00:46:45.027Z,7.00
2022-10-09T00:49:16.051Z,7.10
2022-10-09T00:51:43.902Z,7.10
2022-10-09T00:54:14.641Z,7.10
2022-10-09T00:56:41.833Z,7.10
2022-10-09T00:59:08.798Z,7.10
2022-10-09T01:01:35.710Z,7.20
2022-10-09T01:04:02.550Z,7.20
2022-10-09T01:07:00.359Z,7.20
2022-10-09T01:09:48.940Z,7.20
2022-10-09T01:12:47.604Z,7.20
2022-10-09T01:15:24.608Z,7.20
2022-10-09T01:17:53.891Z,7.20
2022-10-09T01:20:38.511Z,7.20
2022-10-09T01:23:15.968Z,7.20
2022-10-09T01:26:10.813Z,7.20
2022-10-09T01:28:39.090Z,7.20
2022-10-09T01:31:06.716Z,7.20
2022-10-09T01:33:34.034Z,7.10
2022-10-09T01:36:01.845Z,7.10
2022-10-09T01:38:29.648Z,7.10
2022-10-09T01:40:56.811Z,7.10
2022-10-09T01:43:23.550Z,7.10
2022-10-09T01:45:50.325Z,7.00
2022-10-09T01:48:23.113Z,7.10
2022-10-09T01:50:58.111Z,7.10
2022-10-09T01:53:26.042Z,7.10
2022-10-09T01:56:07.678Z,7.10
2022-10-09T01:58:46.661Z,7.20
2022-10-09T02:01:31.789Z,7.20
2022-10-09T02:03:59.813Z,7.20
2022-10-09T02:06:28.118Z,7.20
2022-10-09T02:08:55.779Z,7.20
2022-10-09T02:11:25.724Z,7.20
2022-10-09T02:13:53.400Z,7.20
2022-10-09T02:16:36.814Z,7.20
2022-10-09T02:19:23.008Z,7.30
2022-10-09T02:22:05.630Z,7.30
2022-10-09T02:24:32.976Z,7.30
2022-10-09T02:27:00.695Z,7.30
2022-10-09T02:29:27.491Z,7.30
2022-10-09T02:31:54.417Z,7.30
2022-10-09T02:34:21.785Z,7.30
2022-10-09T02:36:49.758Z,7.30
2022-10-09T02:39:17.072Z,7.20
2022-10-09T02:41:43.911Z,7.20
2022-10-09T02:44:10.817Z,7.20
2022-10-09T02:46:38.595Z,7.20
2022-10-09T02:49:06.647Z,7.20
2022-10-09T02:51:33.716Z,7.20
2022-10-09T02:54:00.560Z,7.20
2022-10-09T02:56:28.099Z,7.30
2022-10-09T02:58:54.912Z,7.30
2022-10-09T03:01:22.446Z,7.20
2022-10-09T03:03:49.395Z,7.20
2022-10-09T03:06:18.189Z,7.20
2022-10-09T03:08:47.997Z,7.10
2022-10-09T03:11:16.041Z,7.10
2022-10-09T03:13:43.207Z,7.10
2022-10-09T03:16:19.323Z,7.10
2022-10-09T03:18:56.109Z,7.10
2022-10-09T03:21:25.322Z,7.10
2022-10-09T03:23:53.450Z,7.10
2022-10-09T03:26:25.660Z,7.10
2022-10-09T03:28:53.602Z,7.10
2022-10-09T03:31:46.987Z,7.10
2022-10-09T03:34:10.875Z,7.10
2022-10-09T03:36:37.687Z,7.00
2022-10-09T03:39:04.471Z,7.00
2022-10-09T03:41:31.238Z,7.00
2022-10-09T03:43:58.016Z,7.00
2022-10-09T03:46:24.950Z,7.00
2022-10-09T03:48:51.781Z,6.90
2022-10-09T03:51:18.551Z,6.90
2022-10-09T03:53:45.363Z,6.90
2022-10-09T03:56:12.170Z,6.90
2022-10-09T03:58:38.977Z,6.80
2022-10-09T04:01:05.782Z,6.80
2022-10-09T04:03:32.628Z,6.80
2022-10-09T04:05:59.512Z,6.80
2022-10-09T04:08:26.467Z,6.80
2022-10-09T04:10:58.063Z,6.70
2022-10-09T04:13:24.878Z,6.70
2022-10-09T04:15:53.081Z,6.70
2022-10-09T04:18:20.347Z,6.70
2022-10-09T04:20:51.446Z,6.60
2022-10-09T04:23:19.692Z,6.60
2022-10-09T04:25:46.586Z,6.60
2022-10-09T04:28:14.003Z,6.50
2022-10-09T04:30:41.163Z,6.50
2022-10-09T04:33:12.556Z,6.50
2022-10-09T04:35:44.256Z,6.50
2022-10-09T04:38:11.461Z,6.50
2022-10-09T04:40:38.379Z,6.50
2022-10-09T04:43:05.329Z,6.50
2022-10-09T04:45:32.298Z,6.60
2022-10-09T04:47:59.259Z,6.60
2022-10-09T04:50:26.056Z,6.60
2022-10-09T04:52:52.948Z,6.50
2022-10-09T04:55:19.790Z,6.50
2022-10-09T04:57:46.568Z,6.50
2022-10-09T05:00:14.203Z,6.50
2022-10-09T05:02:41.003Z,6.50
2022-10-09T05:05:08.242Z,6.40
2022-10-09T05:07:34.980Z,6.40
2022-10-09T05:10:01.743Z,6.40
2022-10-09T05:12:28.497Z,6.40
2022-10-09T05:14:55.300Z,6.40
2022-10-09T05:17:23.457Z,6.40
2022-10-09T05:19:50.591Z,6.40
2022-10-09T05:22:17.352Z,6.40
2022-10-09T05:24:44.095Z,6.40
2022-10-09T05:27:10.871Z,6.40
2022-10-09T05:29:37.623Z,6.40
2022-10-09T05:32:04.481Z,6.40
2022-10-09T05:34:34.178Z,6.30
2022-10-09T05:37:01.094Z,6.30
2022-10-09T05:39:28.002Z,6.30
2022-10-09T05:41:54.966Z,6.30
2022-10-09T05:44:21.914Z,6.30
2022-10-09T05:46:51.654Z,6.30
2022-10-09T05:49:18.788Z,6.30
2022-10-09T05:51:45.576Z,6.30
2022-10-09T05:54:16.967Z,6.30
2022-10-09T05:56:44.596Z,6.20
2022-10-09T05:59:18.933Z,6.30
2022-10-09T06:01:48.772Z,6.20
2022-10-09T06:04:17.714Z,6.20
2022-10-09T06:06:46.758Z,6.20
2022-10-09T06:09:14.136Z,6.20
2022-10-09T06:11:41.567Z,6.20
2022-10-09T06:14:10.439Z,6.20
2022-10-09T06:16:41.403Z,6.20
2022-10-09T06:19:10.133Z,6.20
2022-10-09T06:21:36.878Z,6.30
2022-10-09T06:24:05.001Z,6.30
2022-10-09T06:26:32.223Z,6.30
2022-10-09T06:29:00.903Z,6.30
2022-10-09T06:31:30.449Z,6.40
2022-10-09T06:33:59.605Z,6.40
2022-10-09T06:36:28.423Z,6.40
2022-10-09T06:38:55.197Z,6.40
2022-10-09T06:41:26.612Z,6.50
2022-10-09T06:44:04.231Z,6.50
2022-10-09T06:46:36.278Z,6.50
2022-10-09T06:49:04.435Z,6.50
2022-10-09T06:51:32.457Z,6.60
2022-10-09T06:54:01.026Z,6.70
2022-10-09T06:56:30.059Z,6.80
2022-10-09T06:58:59.725Z,6.90
2022-10-09T07:01:30.309Z,7.00
2022-10-09T07:03:59.299Z,7.10
2022-10-09T07:06:31.423Z,7.20
2022-10-09T07:09:04.316Z,7.20
2022-10-09T07:11:34.664Z,7.30
2022-10-09T07:14:02.794Z,7.40
2022-10-09T07:16:32.374Z,7.50
2022-10-09T07:19:01.212Z,7.60
2022-10-09T07:21:28.043Z,7.60
2022-10-09T07:23:54.851Z,7.70
2022-10-09T07:26:24.383Z,7.80
2022-10-09T07:28:51.674Z,7.90
2022-10-09T07:31:18.512Z,8.00
2022-10-09T07:33:53.231Z,8.10
2022-10-09T07:36:20.043Z,8.20
2022-10-09T07:38:54.335Z,8.30
2022-10-09T07:41:22.426Z,8.40
2022-10-09T07:43:49.598Z,8.50
2022-10-09T07:46:19.217Z,8.60
2022-10-09T07:48:46.173Z,8.70
2022-10-09T07:51:20.224Z,8.80
2022-10-09T07:53:47.307Z,8.90
2022-10-09T07:56:15.676Z,9.10
2022-10-09T07:58:43.516Z,9.20
2022-10-09T08:01:10.830Z,9.30
2022-10-09T08:03:38.362Z,9.40
2022-10-09T08:06:05.528Z,9.50
2022-10-09T08:08:32.735Z,9.60
2022-10-09T08:10:59.762Z,9.60
2022-10-09T08:13:26.553Z,9.70
2022-10-09T08:15:57.805Z,9.80
2022-10-09T08:18:24.776Z,9.90
2022-10-09T08:21:00.726Z,9.90
2022-10-09T08:23:27.679Z,10.00
2022-10-09T08:25:54.682Z,10.10
2022-10-09T08:28:22.183Z,10.10
2022-10-09T08:30:49.148Z,10.20
2022-10-09T08:33:20.276Z,10.20
2022-10-09T08:35:47.752Z,10.30
2022-10-09T08:38:37.413Z,10.40
2022-10-09T08:41:04.788Z,10.50
2022-10-09T08:43:39.899Z,10.60
2022-10-09T08:46:17.184Z,10.70
2022-10-09T08:48:48.316Z,10.80
2022-10-09T08:51:27.838Z,10.90
2022-10-09T08:54:36.062Z,10.90
2022-10-09T08:57:09.772Z,11.00
2022-10-09T08:59:36.664Z,11.00
2022-10-09T09:02:18.277Z,11.00
2022-10-09T09:05:06.412Z,11.10
2022-10-09T09:07:49.295Z,11.10
2022-10-09T09:10:33.845Z,11.20
2022-10-09T09:13:26.716Z,11.30
2022-10-09T09:16:07.431Z,11.40
2022-10-09T09:18:49.099Z,11.50
2022-10-09T09:21:47.363Z,11.70
2022-10-09T09:24:17.584Z,11.90
2022-10-09T09:26:47.113Z,12.10
2022-10-09T09:29:15.809Z,12.30
2022-10-09T09:31:43.229Z,12.40
2022-10-09T09:34:17.957Z,12.60
2022-10-09T09:36:57.933Z,12.80
2022-10-09T09:42:17.443Z,13.20
2022-10-09T09:45:00.319Z,13.40
2022-10-09T09:47:34.561Z,13.50
2022-10-09T09:50:04.095Z,13.70
2022-10-09T09:52:35.699Z,13.80
2022-10-09T09:55:02.840Z,13.90
2022-10-09T09:57:35.953Z,14.00
2022-10-09T10:00:27.297Z,14.10
2022-10-09T10:03:04.824Z,14.10
2022-10-09T10:05:36.790Z,14.20
2022-10-09T10:08:34.381Z,14.40
2022-10-09T10:11:03.491Z,14.60
2022-10-09T10:13:38.632Z,14.80
2022-10-09T10:16:08.771Z,14.90
2022-10-09T10:18:41.087Z,15.00
2022-10-09T10:21:14.243Z,15.00
2022-10-09T10:23:48.853Z,15.00
2022-10-09T10:26:34.836Z,15.00
2022-10-09T10:29:08.853Z,15.10
2022-10-09T10:31:59.299Z,15.20
2022-10-09T10:35:01.160Z,15.40
2022-10-09T10:37:27.857Z,15.50
2022-10-09T10:39:59.402Z,15.40
2022-10-09T10:42:56.079Z,15.30
2022-10-09T10:45:33.457Z,15.30
2022-10-09T10:48:01.437Z,15.30
2022-10-09T10:50:36.310Z,15.40
2022-10-09T10:53:16.283Z,15.50
2022-10-09T10:56:04.937Z,15.70
2022-10-09T10:59:12.745Z,15.70
2022-10-09T11:02:00.025Z,15.80
2022-10-09T11:04:33.800Z,16.00
2022-10-09T11:07:09.970Z,16.00
2022-10-09T11:10:06.188Z,16.00
2022-10-09T11:12:48.256Z,15.90
2022-10-09T11:15:37.775Z,15.80
2022-10-09T11:18:43.336Z,15.90
2022-10-09T11:21:16.199Z,16.00
2022-10-09T11:24:04.333Z,16.10
2022-10-09T11:26:38.016Z,16.20
2022-10-09T11:29:35.290Z,16.50
2022-10-09T11:32:09.303Z,16.70
2022-10-09T11:34:52.710Z,16.80
2022-10-09T11:37:23.942Z,16.80
2022-10-09T11:39:50.923Z,16.80
2022-10-09T11:42:21.548Z,16.80
2022-10-09T11:45:14.731Z,16.80
2022-10-09T11:48:04.873Z,16.80
2022-10-09T11:51:08.472Z,16.80
2022-10-09T11:53:37.268Z,16.70
2022-10-09T11:56:06.575Z,16.70
2022-10-09T11:58:33.964Z,16.70
2022-10-09T12:01:24.004Z,16.60
2022-10-09T12:04:11.712Z,16.50
2022-10-09T12:07:09.301Z,16.60
2022-10-09T12:09:39.670Z,16.70
2022-10-09T12:12:09.178Z,16.80
2022-10-09T12:14:37.865Z,16.80
2022-10-09T12:17:22.650Z,16.80
2022-10-09T12:20:15.587Z,16.80
2022-10-09T12:23:01.490Z,16.70
2022-10-09T12:25:44.845Z,16.60
2022-10-09T12:28:30.436Z,16.60
2022-10-09T12:31:00.140Z,16.50
2022-10-09T12:33:48.331Z,16.40
2022-10-09T12:36:22.433Z,16.40
2022-10-09T12:38:49.248Z,16.30
2022-10-09T12:41:32.780Z,16.20
2022-10-09T12:44:02.310Z,16.10
2022-10-09T12:46:34.846Z,16.10
2022-10-09T12:49:14.238Z,16.30
2022-10-09T12:51:40.980Z,16.30
2022-10-09T12:54:08.973Z,16.20
2022-10-09T12:56:38.465Z,16.10
2022-10-09T12:59:07.072Z,16.00
2022-10-09T13:01:35.110Z,16.10
2022-10-09T13:04:05.138Z,16.10
2022-10-09T13:06:45.237Z,16.10
2022-10-09T13:09:24.959Z,16.20
2022-10-09T13:12:20.035Z,16.20
2022-10-09T13:15:02.841Z,16.20
2022-10-09T13:17:36.309Z,16.10
2022-10-09T13:20:12.386Z,15.90
2022-10-09T13:22:39.818Z,15.80
2022-10-09T13:25:07.105Z,15.60
2022-10-09T13:27:37.958Z,15.40
2022-10-09T13:30:06.329Z,15.40
2022-10-09T13:32:33.288Z,15.40
2022-10-09T13:35:00.055Z,15.60
2022-10-09T13:37:27.225Z,15.60
2022-10-09T13:39:58.800Z,15.60
2022-10-09T13:42:27.634Z,15.60
2022-10-09T13:44:54.472Z,15.60
2022-10-09T13:47:24.396Z,15.60
2022-10-09T13:49:51.631Z,15.50
2022-10-09T13:52:18.478Z,15.50
2022-10-09T13:54:45.290Z,15.50
2022-10-09T13:57:12.182Z,15.60
2022-10-09T13:59:39.107Z,15.70
2022-10-09T14:02:05.900Z,15.70
2022-10-09T14:04:33.487Z,15.80
2022-10-09T14:07:00.246Z,15.80
2022-10-09T14:09:27.047Z,15.70
2022-10-09T14:11:53.780Z,15.70
2022-10-09T14:14:22.330Z,15.70
2022-10-09T14:16:50.655Z,15.70
2022-10-09T14:19:17.846Z,15.70
2022-10-09T14:21:47.817Z,15.60
2022-10-09T14:24:15.504Z,15.60
2022-10-09T14:26:44.255Z,15.50
2022-10-09T14:29:12.272Z,15.50
2022-10-09T14:31:38.994Z,15.40
2022-10-09T14:34:05.754Z,15.30
2022-10-09T14:36:32.671Z,15.30
2022-10-09T14:39:01.166Z,15.20
2022-10-09T14:41:30.621Z,15.20
2022-10-09T14:43:59.864Z,15.10
2022-10-09T14:46:28.603Z,15.00
2022-10-09T14:48:56.540Z,15.00
2022-10-09T14:51:25.585Z,15.00
2022-10-09T14:53:56.030Z,14.90
2022-10-09T14:56:22.731Z,15.00
2022-10-09T14:58:49.471Z,15.00
2022-10-09T15:01:18.081Z,15.00
2022-10-09T15:03:46.174Z,14.90
2022-10-09T15:06:13.097Z,14.90
2022-10-09T15:08:43.592Z,14.80
2022-10-09T15:11:12.163Z,14.70
2022-10-09T15:13:39.314Z,14.60
2022-10-09T15:16:15.266Z,14.50
2022-10-09T15:18:42.702Z,14.50
2022-10-09T15:21:12.454Z,14.40
2022-10-09T15:23:39.505Z,14.30
2022-10-09T15:26:06.798Z,14.20
2022-10-09T15:28:34.868Z,14.10
2022-10-09T15:31:03.294Z,14.00
2022-10-09T15:33:30.122Z,14.00
2022-10-09T15:35:56.843Z,13.90
2022-10-09T15:38:24.625Z,13.80
2022-10-09T15:40:54.017Z,13.70
2022-10-09T15:43:24.515Z,13.70
2022-10-09T15:45:54.134Z,13.60
2022-10-09T15:48:23.692Z,13.60
2022-10-09T15:50:52.289Z,13.50
2022-10-09T15:53:27.265Z,13.40
2022-10-09T15:55:57.197Z,13.30
2022-10-09T16:46:31.627Z,11.20
2022-10-09T16:48:59.690Z,11.10
2022-10-09T16:51:30.294Z,11.00
2022-10-09T16:53:59.156Z,10.90
2022-10-09T16:56:28.758Z,10.80
2022-10-09T16:59:00.315Z,10.70
2022-10-09T17:01:27.709Z,10.70
2022-10-09T17:03:55.820Z,10.60
2022-10-09T17:06:23.890Z,10.50
2022-10-09T17:08:51.936Z,10.40
2022-10-09T17:11:19.434Z,10.30
2022-10-09T17:13:46.839Z,10.20
2022-10-09T17:16:18.595Z,10.10
2022-10-09T17:18:46.343Z,10.10
2022-10-09T17:21:14.276Z,10.00
2022-10-09T17:23:41.421Z,9.90
2022-10-09T17:26:11.729Z,9.90
2022-10-09T17:28:39.681Z,9.80
2022-10-09T17:31:10.472Z,9.70
2022-10-09T17:33:41.144Z,9.70
2022-10-09T17:36:09.390Z,9.60
2022-10-09T17:38:36.369Z,9.60
2022-10-09T17:41:09.620Z,9.60
2022-10-09T17:43:36.828Z,9.50
2022-10-09T17:46:04.104Z,9.50
2022-10-09T17:48:33.198Z,9.40
2022-10-09T17:51:01.682Z,9.40
2022-10-09T17:53:28.543Z,9.30
2022-10-09T17:55:56.721Z,9.20
2022-10-09T17:58:24.385Z,9.20
2022-10-09T18:00:51.590Z,9.10
2022-10-09T18:03:18.853Z,9.10
2022-10-09T18:05:47.867Z,9.10
2022-10-09T18:08:16.599Z,9.00
2022-10-09T18:10:43.804Z,8.90
2022-10-09T18:13:11.634Z,8.90
2022-10-09T18:15:39.572Z,8.80
2022-10-09T18:18:06.963Z,8.80
2022-10-09T18:20:38.240Z,8.80
2022-10-09T18:23:05.226Z,8.70
2022-10-09T18:25:32.304Z,8.70
2022-10-09T18:27:59.195Z,8.60
2022-10-09T18:30:26.168Z,8.60
2022-10-09T18:32:53.362Z,8.50
2022-10-09T18:35:20.253Z,8.50
2022-10-09T18:37:47.026Z,8.50
2022-10-09T18:40:14.138Z,8.40
2022-10-09T18:42:41.012Z,8.40
2022-10-09T18:45:09.979Z,8.40
2022-10-09T18:47:36.794Z,8.30
2022-10-09T18:50:07.077Z,8.30
2022-10-09T18:52:34.960Z,8.20
2022-10-09T18:55:02.641Z,8.20
2022-10-09T18:57:29.637Z,8.20
2022-10-09T18:59:57.443Z,8.10
2022-10-09T19:02:26.914Z,8.10
2022-10-09T19:04:54.691Z,8.00
2022-10-09T19:07:21.612Z,8.00
2022-10-09T19:09:56.348Z,8.00
2022-10-09T19:12:24.796Z,8.00
2022-10-09T19:14:51.678Z,7.90
2022-10-09T19:17:18.592Z,7.90
2022-10-09T19:19:45.442Z,7.90
2022-10-09T19:22:16.388Z,7.80
2022-10-09T19:24:44.465Z,7.80
2022-10-09T19:27:11.583Z,7.70
2022-10-09T19:29:38.520Z,7.70
2022-10-09T19:32:05.458Z,7.70
2022-10-09T19:34:32.596Z,7.60
2022-10-09T19:36:59.536Z,7.60
2022-10-09T19:39:26.594Z,7.50
2022-10-09T19:41:53.615Z,7.50
2022-10-09T19:44:21.062Z,7.40
2022-10-09T19:46:48.481Z,7.40
2022-10-09T19:49:15.294Z,7.40
2022-10-09T19:51:42.227Z,7.40
2022-10-09T19:54:09.925Z,7.30
2022-10-09T19:56:37.117Z,7.30
2022-10-09T19:59:07.517Z,7.30
2022-10-09T20:01:35.783Z,7.30
2022-10-09T20:04:13.625Z,7.20
2022-10-09T20:06:44.792Z,7.20
2022-10-09T20:09:12.490Z,7.20
2022-10-09T20:11:39.991Z,7.20
2022-10-09T20:14:12.262Z,7.20
2022-10-09T20:16:41.415Z,7.10
2022-10-09T20:19:10.427Z,7.10
2022-10-09T20:21:38.708Z,7.10
2022-10-09T20:24:06.480Z,7.10
2022-10-09T20:26:40.928Z,7.00
2022-10-09T20:29:09.687Z,7.00
2022-10-09T20:31:36.511Z,7.00
2022-10-09T20:34:03.785Z,6.90
2022-10-09T20:36:40.661Z,6.90
2022-10-09T20:39:14.167Z,6.90
2022-10-09T20:41:45.256Z,6.90
2022-10-09T20:44:12.462Z,6.90
2022-10-09T20:46:40.830Z,6.90
2022-10-09T20:49:13.460Z,6.90
2022-10-09T20:51:41.379Z,6.80
2022-10-09T20:54:13.832Z,6.80
2022-10-09T20:56:40.735Z,6.80
2022-10-09T20:59:15.213Z,6.80
2022-10-09T21:01:45.350Z,6.80
2022-10-09T21:04:14.238Z,6.80
2022-10-09T21:06:45.208Z,6.80
2022-10-09T21:09:14.372Z,6.80
2022-10-09T21:11:41.691Z,6.80
2022-10-09T21:14:09.836Z,6.90
2022-10-09T21:16:36.925Z,6.90
2022-10-09T21:19:04.807Z,6.90
2022-10-09T21:21:32.687Z,7.00
2022-10-09T21:24:00.213Z,7.10
2022-10-09T21:26:28.706Z,7.20
2022-10-09T21:28:59.730Z,7.20
2022-10-09T21:31:30.948Z,7.30
2022-10-09T21:33:59.368Z,7.40
2022-10-09T21:36:32.450Z,7.50
2022-10-09T21:39:01.935Z,7.50
2022-10-09T21:41:29.132Z,7.60
2022-10-09T21:43:56.440Z,7.60
2022-10-09T21:46:28.478Z,7.60
2022-10-09T21:48:55.320Z,7.70
2022-10-09T21:52:06.592Z,7.70
2022-10-09T21:54:34.942Z,7.70
2022-10-09T21:57:02.012Z,7.70
2022-10-09T21:59:29.109Z,7.70
2022-10-09T22:01:55.876Z,7.70
2022-10-09T22:04:22.733Z,7.70
2022-10-09T22:06:52.663Z,7.70
2022-10-09T22:09:19.438Z,7.80
2022-10-09T22:11:46.284Z,7.80
2022-10-09T22:14:13.282Z,7.80
2022-10-09T22:16:40.140Z,7.80
2022-10-09T22:19:07.203Z,7.80
2022-10-09T22:21:34.053Z,7.80
2022-10-09T22:24:01.102Z,7.80
2022-10-09T22:26:27.995Z,7.70
2022-10-09T22:28:54.797Z,7.70
2022-10-09T22:31:26.762Z,7.70
2022-10-09T22:33:55.299Z,7.60
2022-10-09T22:36:24.098Z,7.60
2022-10-09T22:38:54.074Z,7.60
2022-10-09T22:41:21.974Z,7.60
2022-10-09T22:43:50.559Z,7.50
2022-10-09T22:46:25.793Z,7.50
2022-10-09T22:48:53.085Z,7.40
2022-10-09T22:51:21.474Z,7.40
2022-10-09T22:53:51.203Z,7.50
2022-10-09T22:56:20.080Z,7.40
2022-10-09T22:58:47.881Z,7.40
2022-10-09T23:01:20.767Z,7.40
2022-10-09T23:03:47.611Z,7.40
2022-10-09T23:06:17.120Z,7.30
2022-10-09T23:08:45.740Z,7.30
2022-10-09T23:11:13.054Z,7.30
2022-10-09T23:13:40.099Z,7.30
2022-10-09T23:16:08.912Z,7.30
2022-10-09T23:18:37.019Z,7.20
2022-10-09T23:21:23.167Z,7.20
2022-10-09T23:23:51.305Z,7.20
2022-10-09T23:26:24.191Z,7.20
2022-10-09T23:28:55.870Z,7.20
2022-10-09T23:31:23.090Z,7.10
2022-10-09T23:33:49.981Z,7.10
2022-10-09T23:36:19.276Z,7.10
2022-10-09T23:38:46.210Z,7.10
2022-10-09T23:41:15.504Z,7.10
2022-10-09T23:43:45.272Z,7.10
2022-10-09T23:46:14.681Z,7.10
2022-10-09T23:48:42.344Z,7.20
2022-10-09T23:51:09.465Z,7.20
2022-10-09T23:53:36.336Z,7.20
2022-10-09T23:56:27.812Z,7.20
2022-10-09T23:58:55.919Z,7.20
